createdAt,value
2022-12-15T00:03:10.533Z,-5.17
2022-12-15T00:08:30.784Z,-5.01
2022-12-15T00:13:50.742Z,-4.80
2022-12-15T00:19:10.573Z,-4.65
2022-12-15T00:24:30.438Z,-4.56
2022-12-15T00:29:50.300Z,-4.50
2022-12-15T00:35:10.155Z,-4.36
2022-12-15T00:40:11.603Z,-4.25
2022-12-15T00:45:12.833Z,-4.20
2022-12-15T00:50:32.860Z,-4.10
2022-12-15T00:55:52.606Z,-4.01
2022-12-15T01:01:13.494Z,-3.95
2022-12-15T01:06:33.241Z,-3.88
2022-12-15T01:11:53.080Z,-3.87
2022-12-15T01:17:12.783Z,-3.82
2022-12-15T01:22:14.073Z,-3.74
2022-12-15T01:27:15.285Z,-3.70
2022-12-15T01:32:16.579Z,-3.64
2022-12-15T01:37:17.866Z,-3.60
2022-12-15T01:42:19.107Z,-3.63
2022-12-15T01:47:20.374Z,-3.62
2022-12-15T01:52:21.565Z,-3.64
2022-12-15T01:57:22.868Z,-3.67
2022-12-15T02:02:24.256Z,-3.68
2022-12-15T02:07:25.576Z,-3.68
2022-12-15T02:12:26.841Z,-3.68
2022-12-15T02:17:28.135Z,-3.75
2022-12-15T02:22:29.371Z,-3.71
2022-12-15T02:27:30.635Z,-3.76
2022-12-15T02:32:31.930Z,-3.78
2022-12-15T02:37:33.253Z,-3.75
2022-12-15T02:42:34.566Z,-3.77
2022-12-15T02:47:35.801Z,-3.79
2022-12-15T02:52:37.119Z,-3.78
2022-12-15T02:57:38.471Z,-3.78
2022-12-15T03:02:39.845Z,-3.76
2022-12-15T03:07:42.748Z,-3.76
2022-12-15T03:12:44.809Z,-3.77
2022-12-15T03:17:46.078Z,-3.75
2022-12-15T03:22:47.421Z,-3.75
2022-12-15T03:27:48.684Z,-3.79
2022-12-15T03:32:50.092Z,-3.81
2022-12-15T03:37:51.365Z,-3.87
2022-12-15T03:42:52.709Z,-3.96
2022-12-15T03:47:54.017Z,-4.00
2022-12-15T03:52:55.315Z,-4.24
2022-12-15T03:57:56.634Z,-4.33
2022-12-15T04:02:58.035Z,-4.24
2022-12-15T04:07:59.410Z,-4.22
2022-12-15T04:13:00.746Z,-4.25
2022-12-15T04:18:02.486Z,-4.40
2022-12-15T04:23:03.780Z,-4.36
2022-12-15T04:28:23.970Z,-4.38
2022-12-15T04:33:43.869Z,-4.41
2022-12-15T04:39:03.642Z,-4.48
2022-12-15T04:44:23.551Z,-4.49
2022-12-15T04:49:43.300Z,-4.56
2022-12-15T04:55:03.128Z,-4.54
2022-12-15T05:00:22.915Z,-4.66
2022-12-15T05:05:42.795Z,-4.65
2022-12-15T05:11:02.589Z,-4.60
2022-12-15T05:16:22.342Z,-4.54
2022-12-15T05:21:42.084Z,-4.63
2022-12-15T05:27:01.918Z,-4.71
2022-12-15T05:32:03.169Z,-4.79
2022-12-15T05:37:04.380Z,-4.75
2022-12-15T05:42:05.664Z,-4.70
2022-12-15T05:47:08.216Z,-4.57
2022-12-15T05:52:09.501Z,-4.54
2022-12-15T05:57:10.766Z,-4.45
2022-12-15T06:02:12.174Z,-4.32
2022-12-15T06:07:13.559Z,-4.20
2022-12-15T06:12:14.810Z,-4.12
2022-12-15T06:17:16.066Z,-4.03
2022-12-15T06:22:17.366Z,-3.98
2022-12-15T06:27:18.600Z,-3.95
2022-12-15T06:32:21.316Z,-3.93
2022-12-15T06:37:22.514Z,-3.90
2022-12-15T06:42:23.758Z,-3.90
2022-12-15T06:47:25.048Z,-3.85
2022-12-15T06:52:26.247Z,-3.82
2022-12-15T06:57:27.440Z,-3.80
2022-12-15T07:02:30.267Z,-3.80
2022-12-15T07:07:31.629Z,-3.83
2022-12-15T07:12:33.087Z,-3.84
2022-12-15T07:17:34.264Z,-3.83
2022-12-15T07:22:35.523Z,-3.83
2022-12-15T07:27:36.642Z,-3.88
2022-12-15T07:32:37.907Z,-3.91
2022-12-15T07:37:39.136Z,-3.95
2022-12-15T07:42:40.335Z,-3.91
2022-12-15T07:47:41.496Z,-3.85
2022-12-15T07:52:43.422Z,-3.84
2022-12-15T07:57:44.600Z,-3.81
2022-12-15T08:02:45.963Z,-3.76
2022-12-15T08:07:51.368Z,-3.71
2022-12-15T08:12:52.592Z,-3.67
2022-12-15T08:17:53.767Z,-3.70
2022-12-15T08:22:54.968Z,-3.73
2022-12-15T08:27:56.224Z,-3.70
2022-12-15T08:32:57.395Z,-3.66
2022-12-15T08:38:03.753Z,-3.68
2022-12-15T08:43:06.512Z,-3.61
2022-12-15T08:48:07.682Z,-3.51
2022-12-15T08:53:30.229Z,-3.47
2022-12-15T08:58:30.078Z,-3.37
2022-12-15T09:03:31.746Z,-3.33
2022-12-15T09:08:33.302Z,-3.38
2022-12-15T09:13:34.963Z,-3.42
2022-12-15T09:18:36.448Z,-3.32
2022-12-15T09:23:37.626Z,-3.34
2022-12-15T09:28:38.781Z,-3.33
2022-12-15T09:33:39.980Z,-3.21
2022-12-15T09:38:41.120Z,-3.30
2022-12-15T09:43:46.945Z,-3.30
2022-12-15T09:48:48.577Z,-3.28
2022-12-15T09:53:57.473Z,-3.24
2022-12-15T09:58:58.894Z,-3.25
2022-12-15T10:04:00.258Z,-3.24
2022-12-15T10:09:01.656Z,-3.23
2022-12-15T10:14:02.824Z,-3.19
2022-12-15T10:19:04.030Z,-3.14
2022-12-15T10:24:05.354Z,-3.21
2022-12-15T10:29:06.597Z,-3.13
2022-12-15T10:34:07.823Z,-3.09
2022-12-15T10:39:12.923Z,-3.00
2022-12-15T10:44:15.709Z,-3.01
2022-12-15T10:49:16.931Z,-3.03
2022-12-15T10:54:18.747Z,-2.95
2022-12-15T10:59:19.866Z,-2.93
2022-12-15T11:04:21.103Z,-2.67
2022-12-15T11:09:22.443Z,-2.50
2022-12-15T11:14:24.172Z,-2.57
2022-12-15T11:19:25.479Z,-2.14
2022-12-15T11:24:26.937Z,-1.76
2022-12-15T11:29:28.153Z,-1.41
2022-12-15T11:34:29.330Z,-1.35
2022-12-15T11:39:30.501Z,-1.26
2022-12-15T11:44:31.668Z,-1.24
2022-12-15T11:49:37.594Z,-1.40
2022-12-15T11:54:42.024Z,-1.69
2022-12-15T11:59:43.223Z,-1.79
2022-12-15T12:04:44.603Z,-1.73
2022-12-15T12:09:48.602Z,-1.69
2022-12-15T12:14:50.425Z,-1.70
2022-12-15T12:19:52.081Z,-1.59
2022-12-15T12:24:53.283Z,-1.58
2022-12-15T12:29:54.627Z,-1.37
2022-12-15T12:35:29.918Z,-1.21
2022-12-15T12:40:17.516Z,-1.08
2022-12-15T12:45:19.167Z,-0.85
2022-12-15T12:50:20.372Z,-0.70
2022-12-15T12:55:21.513Z,-0.59
2022-12-15T13:00:22.903Z,-0.38
2022-12-15T13:05:24.155Z,-0.51
2022-12-15T13:10:25.343Z,-0.49
2022-12-15T13:15:26.508Z,-0.39
2022-12-15T13:20:27.817Z,-0.16
2022-12-15T13:25:29.086Z,-0.33
2022-12-15T13:30:30.318Z,-0.08
2022-12-15T13:35:31.527Z,-0.30
2022-12-15T13:40:35.747Z,-0.38
2022-12-15T13:45:37.153Z,-0.32
2022-12-15T13:50:38.416Z,-0.32
2022-12-15T13:55:39.853Z,-0.24
2022-12-15T14:00:41.074Z,-0.16
2022-12-15T14:05:42.972Z,-0.16
2022-12-15T14:10:44.252Z,-0.27
2022-12-15T14:15:45.411Z,-0.68
2022-12-15T14:20:46.823Z,-0.40
2022-12-15T14:25:50.398Z,-0.44
2022-12-15T14:30:51.944Z,-0.69
2022-12-15T14:35:53.115Z,-0.95
2022-12-15T14:40:54.270Z,-1.04
2022-12-15T14:45:55.633Z,-1.20
2022-12-15T14:50:56.848Z,-1.36
2022-12-15T14:56:00.588Z,-1.41
2022-12-15T15:01:01.945Z,-1.53
2022-12-15T15:06:03.142Z,-1.65
2022-12-15T15:11:04.656Z,-1.75
2022-12-15T15:16:05.880Z,-1.89
2022-12-15T15:21:07.061Z,-2.12
2022-12-15T15:26:08.219Z,-2.22
2022-12-15T15:31:09.435Z,-2.33
2022-12-15T15:36:10.673Z,-2.47
2022-12-15T15:41:11.846Z,-2.57
2022-12-15T15:46:13.217Z,-2.77
2022-12-15T15:51:14.436Z,-2.87
2022-12-15T15:56:15.571Z,-3.00
2022-12-15T16:01:16.780Z,-3.09
2022-12-15T16:06:18.086Z,-3.19
2022-12-15T16:11:20.043Z,-3.28
2022-12-15T16:16:21.657Z,-3.39
2022-12-15T16:21:22.868Z,-3.46
2022-12-15T16:26:24.075Z,-3.51
2022-12-15T16:31:25.432Z,-3.61
2022-12-15T16:36:26.635Z,-3.68
2022-12-15T16:41:27.828Z,-3.78
2022-12-15T16:46:29.070Z,-3.86
2022-12-15T16:51:30.380Z,-3.97
2022-12-15T16:56:31.597Z,-4.07
2022-12-15T17:01:38.280Z,-4.10
2022-12-15T17:06:41.146Z,-4.20
2022-12-15T17:11:42.410Z,-4.28
2022-12-15T17:16:43.543Z,-4.31
2022-12-15T17:21:44.696Z,-4.28
2022-12-15T17:26:45.883Z,-4.30
2022-12-15T17:31:47.137Z,-4.37
2022-12-15T17:36:48.335Z,-4.47
2022-12-15T17:42:00.079Z,-4.65
2022-12-15T17:47:02.528Z,-4.59
2022-12-15T17:52:03.798Z,-4.64
2022-12-15T17:57:04.955Z,-4.68
2022-12-15T18:02:06.367Z,-4.71
2022-12-15T18:07:07.649Z,-4.67
2022-12-15T18:12:08.873Z,-4.73
2022-12-15T18:17:10.075Z,-4.79
2022-12-15T18:22:11.920Z,-4.90
2022-12-15T18:27:13.079Z,-5.00
2022-12-15T18:32:14.301Z,-5.05
2022-12-15T18:37:15.551Z,-5.15
2022-12-15T18:42:16.764Z,-5.21
2022-12-15T18:47:18.095Z,-5.20
2022-12-15T18:52:19.947Z,-5.22
2022-12-15T18:57:21.504Z,-5.26
2022-12-15T19:02:22.791Z,-5.32
2022-12-15T19:07:24.135Z,-5.39
2022-12-15T19:12:25.404Z,-5.48
2022-12-15T19:17:45.507Z,-5.39
2022-12-15T19:22:46.718Z,-5.48
2022-12-15T19:27:48.043Z,-5.56
2022-12-15T19:32:49.703Z,-5.63
2022-12-15T19:37:50.966Z,-5.70
2022-12-15T19:42:52.972Z,-5.74
2022-12-15T19:47:56.747Z,-5.81
2022-12-15T19:52:57.988Z,-5.84
2022-12-15T19:57:59.171Z,-5.84
2022-12-15T20:03:01.881Z,-5.91
2022-12-15T20:08:03.163Z,-5.96
2022-12-15T20:13:04.399Z,-5.97
2022-12-15T20:18:05.540Z,-5.96
2022-12-15T20:23:06.734Z,-5.99
2022-12-15T20:28:08.355Z,-5.97
2022-12-15T20:33:09.550Z,-5.90
2022-12-15T20:38:10.703Z,-5.86
2022-12-15T20:43:11.866Z,-5.90
2022-12-15T20:48:13.613Z,-5.94
2022-12-15T20:53:14.815Z,-6.79
2022-12-15T20:58:16.161Z,-6.00
2022-12-15T21:03:18.167Z,-6.06
2022-12-15T21:08:19.510Z,-6.03
2022-12-15T21:13:20.743Z,-6.01
2022-12-15T21:23:43.176Z,-6.11
2022-12-15T21:28:44.321Z,-6.14
2022-12-15T21:33:46.535Z,-6.23
2022-12-15T21:38:47.736Z,-6.31
2022-12-15T21:43:48.882Z,-6.41
2022-12-15T21:49:08.931Z,-6.49
2022-12-15T21:54:10.110Z,-6.55
2022-12-15T21:59:11.230Z,-6.60
2022-12-15T22:04:12.365Z,-6.67
2022-12-15T22:09:13.592Z,-6.78
2022-12-15T22:14:14.731Z,-6.83
2022-12-15T22:19:15.950Z,-6.88
2022-12-15T22:24:17.206Z,-6.87
2022-12-15T22:29:18.428Z,-6.81
2022-12-15T22:34:19.630Z,-6.88
2022-12-15T22:39:20.869Z,-6.97
2022-12-15T22:44:22.062Z,-7.07
2022-12-15T22:49:23.210Z,-7.17
2022-12-15T22:54:24.462Z,-7.30
2022-12-15T22:59:26.074Z,-7.46
2022-12-15T23:04:27.292Z,-7.43
2022-12-15T23:09:28.492Z,-7.34
2022-12-15T23:14:48.499Z,-7.28
2022-12-15T23:19:49.648Z,-7.27
2022-12-15T23:24:50.895Z,-7.28
2022-12-15T23:29:52.139Z,-7.33
2022-12-15T23:34:53.315Z,-7.31
2022-12-15T23:39:54.494Z,-7.32
2022-12-15T23:44:56.003Z,-7.35
2022-12-15T23:49:57.462Z,-7.41
2022-12-15T23:54:58.861Z,-7.42
